アルマトイ の空港の天気 - METARとTAF

アルマトイ国際空港 ( UAAA / ALA ) - カザフスタン アルマトイ
飛行場実況気象(Metar)
観測時間01/29 10:00 QYZT (01/29 05:00 UTC)
風向・風速不定 1m/s
視程2400m
天気現象もや
全天の4割程度の雲 雲底高度 1520m
全天を覆う雲 雲底高度 3050m
気温-1℃
湿度80%
気圧1020hPa
METARUAAA 290500Z VRB01MPS 2400 BR SCT050CB OVC100 M01/M04 Q1020 NOSIG
過去の天気等 Google飛行場航空写真 Wunderground天気予報

過去48時間のMETAR

飛行場予報(TAF)
発表時間: 1/29 10:02 QYZT (1/29 05:02 UTC)
予報対象時間: 29日11時 QYZT ~ 30日11時 QYZT
風向・風速南西 3m/s
視程3100m
天気現象もや 煙
全天の8割程度の雲 雲底高度 340m
全天を覆う積乱雲 雲底高度 610m
29日11時 QYZT ~ 29日20時 QYZT に一時的に
風向・風速北東 3m/s 瞬間風速 8m/s
視程1500m
天気現象弱いしゅう雨雪 もや
全天の8割程度の雲 雲底高度 150m
全天を覆う積乱雲 雲底高度 340m
29日20時 QYZT ~ 30日8時 QYZT に一時的に
風向・風速南南東 3m/s
視程500m
天気現象弱い雪 氷霧
全天を覆う雲 鉛直視程 60m
30日8時 QYZT ~ 30日11時 QYZT に一時的に
風向・風速北東 3m/s
視程1200m
全天の8割程度の雲 雲底高度 120m
全天を覆う雲 雲底高度 340m
TAF UAAA 290502Z 2906/3006 22003MPS 3100 BR FU BKN011 OVC020CB TX00/2909Z TNM04/3001Z
TEMPO 2906/2915 04003G08MPS 1500 -SHRASN BR BKN005 OVC011CB
TEMPO 2915/3003 16003MPS 0500 -SN FZFG VV002
TEMPO 3003/3006 04003MPS 1200 BKN004 OVC011